createdAt,value
2018-12-23T00:01:40.181Z,100948.20
2018-12-23T00:04:09.245Z,100954.23
2018-12-23T00:06:38.494Z,100943.70
2018-12-23T00:09:07.758Z,100945.80
2018-12-23T00:11:36.821Z,100948.05
2018-12-23T00:14:05.948Z,100946.75
2018-12-23T00:16:35.859Z,100951.08
2018-12-23T00:19:05.846Z,100952.27
2018-12-23T00:22:19.796Z,100957.88
2018-12-23T00:24:49.093Z,100956.55
2018-12-23T00:27:18.145Z,100957.00
2018-12-23T00:29:47.293Z,100957.91
2018-12-23T00:32:16.392Z,100960.03
2018-12-23T00:34:45.570Z,100963.05
2018-12-23T00:37:14.679Z,100966.53
2018-12-23T00:39:43.952Z,100963.05
2018-12-23T00:42:13.011Z,100967.41
2018-12-23T00:44:42.336Z,100977.78
2018-12-23T00:47:11.503Z,100974.76
2018-12-23T00:49:40.543Z,100976.06
2018-12-23T00:52:10.299Z,100978.66
2018-12-23T00:54:39.370Z,100987.77
2018-12-23T00:57:08.652Z,100979.96
2018-12-23T00:59:37.788Z,100977.36
2018-12-23T01:02:06.880Z,100977.78
2018-12-23T01:04:35.966Z,100982.17
2018-12-23T01:07:05.101Z,100982.14
2018-12-23T01:09:36.208Z,100986.07
2018-12-23T01:12:05.562Z,100983.44
2018-12-23T01:14:34.610Z,100981.71
2018-12-23T01:17:03.720Z,100986.04
2018-12-23T01:19:32.806Z,100990.39
2018-12-23T01:22:01.960Z,100989.97
2018-12-23T01:24:31.007Z,100994.33
2018-12-23T01:27:00.162Z,100994.30
2018-12-23T01:29:29.252Z,100997.36
2018-12-23T01:31:58.304Z,100991.73
2018-12-23T01:34:27.562Z,100991.70
2018-12-23T01:36:56.642Z,100994.30
2018-12-23T01:39:25.733Z,100987.80
2018-12-23T01:41:55.362Z,100986.49
2018-12-23T01:44:24.439Z,100989.55
2018-12-23T01:46:53.501Z,100990.39
2018-12-23T01:49:22.659Z,100993.45
2018-12-23T01:51:51.802Z,100989.52
2018-12-23T01:54:20.971Z,100993.84
2018-12-23T01:56:50.125Z,101003.41
2018-12-23T01:59:19.212Z,100997.36
2018-12-23T02:01:48.395Z,101001.68
2018-12-23T02:04:17.488Z,100999.50
2018-12-23T02:06:46.726Z,100993.00
2018-12-23T02:09:15.901Z,100992.55
2018-12-23T02:11:46.123Z,100995.60
2018-12-23T02:14:16.486Z,100991.27
2018-12-23T02:16:46.629Z,100992.15
2018-12-23T02:19:16.517Z,100990.03
2018-12-23T02:21:45.677Z,100989.58
2018-12-23T02:24:14.846Z,100995.69
2018-12-23T02:26:44.034Z,100990.48
2018-12-23T02:29:13.134Z,100987.42
2018-12-23T02:31:42.389Z,100985.28
2018-12-23T02:34:11.445Z,100984.83
2018-12-23T02:36:40.597Z,100989.19
2018-12-23T02:39:10.112Z,100989.61
2018-12-23T02:41:39.177Z,100987.88
2018-12-23T02:44:08.376Z,100988.34
2018-12-23T02:46:37.469Z,100980.08
2018-12-23T02:49:06.529Z,100980.08
2018-12-23T02:51:35.662Z,100978.77
2018-12-23T02:54:04.727Z,100978.80
2018-12-23T02:56:33.788Z,100972.30
2018-12-23T02:59:02.898Z,100977.11
2018-12-23T03:01:32.107Z,100978.83
2018-12-23T03:04:01.144Z,100975.35
2018-12-23T03:06:30.336Z,100973.66
2018-12-23T03:08:59.495Z,100969.30
2018-12-23T03:11:28.666Z,100969.33
2018-12-23T03:13:57.804Z,100969.75
2018-12-23T03:16:26.854Z,100970.17
2018-12-23T03:18:55.940Z,100981.45
2018-12-23T03:21:25.288Z,100978.91
2018-12-23T03:23:54.399Z,100981.98
2018-12-23T03:26:24.498Z,100981.54
2018-12-23T03:34:47.627Z,100984.22
2018-12-23T03:37:18.066Z,100977.63
2018-12-23T03:39:48.222Z,100980.32
2018-12-23T03:42:18.751Z,100979.84
2018-12-23T03:44:49.706Z,100976.41
2018-12-23T03:47:19.853Z,100971.61
2018-12-23T03:49:50.520Z,100970.33
2018-12-23T03:52:21.070Z,100963.41
2018-12-23T03:55:10.220Z,100971.20
2018-12-23T03:57:41.071Z,100970.33
2018-12-23T04:00:11.201Z,100978.16
2018-12-23T04:02:42.008Z,100974.26
2018-12-23T04:05:12.154Z,100965.15
2018-12-23T04:07:42.361Z,100969.48
2018-12-23T04:10:13.157Z,100972.53
2018-12-23T04:12:43.366Z,100978.62
2018-12-23T04:17:49.087Z,100971.23
2018-12-23T04:20:19.520Z,100974.71
2018-12-23T04:22:49.768Z,100972.98
2018-12-23T04:25:39.232Z,100960.81
2018-12-23T04:28:09.356Z,100965.17
2018-12-23T04:30:39.487Z,100967.77
2018-12-23T04:33:28.704Z,100969.50
2018-12-23T04:35:59.503Z,100979.06
2018-12-23T04:38:29.910Z,100975.14
2018-12-23T04:41:00.119Z,100972.96
2018-12-23T04:43:30.202Z,100974.71
2018-12-23T04:46:00.326Z,100968.20
2018-12-23T04:48:30.831Z,100968.60
2018-12-23T04:51:00.972Z,100963.88
2018-12-23T04:53:31.101Z,100959.09
2018-12-23T04:56:01.300Z,100962.55
2018-12-23T04:58:31.439Z,100962.13
2018-12-23T05:01:01.564Z,100961.67
2018-12-23T05:03:31.749Z,100963.40
2018-12-23T05:06:01.882Z,100957.34
2018-12-23T05:08:32.003Z,100956.02
2018-12-23T05:11:02.473Z,100961.72
2018-12-23T05:13:34.306Z,100962.57
2018-12-23T05:16:04.947Z,100965.16
2018-12-23T05:18:35.187Z,100970.84
2018-12-23T05:21:05.718Z,100970.00
2018-12-23T05:23:36.348Z,100968.68
2018-12-23T05:26:06.519Z,100965.19
2018-12-23T05:28:36.958Z,100966.55
2018-12-23T05:31:07.092Z,100965.67
2018-12-23T05:33:37.281Z,100965.65
2018-12-23T05:36:07.818Z,100964.32
2018-12-23T05:38:37.949Z,100973.91
2018-12-23T05:41:08.953Z,100979.54
2018-12-23T05:43:39.446Z,100974.73
2018-12-23T05:46:10.349Z,100974.73
2018-12-23T05:48:40.530Z,100976.88
2018-12-23T05:51:10.654Z,100975.19
2018-12-23T05:53:41.105Z,100971.27
2018-12-23T05:56:11.772Z,100962.16
2018-12-23T05:58:42.215Z,100969.08
2018-12-23T06:01:12.360Z,100963.05
2018-12-23T06:03:42.910Z,100970.00
2018-12-23T06:06:13.032Z,100976.08
2018-12-23T06:08:43.204Z,100980.02
2018-12-23T06:11:14.287Z,100977.84
2018-12-23T06:13:44.848Z,100976.55
2018-12-23T06:16:14.990Z,100982.66
2018-12-23T06:18:45.253Z,100984.81
2018-12-23T06:21:15.719Z,100982.21
2018-12-23T06:23:46.306Z,100984.82
2018-12-23T06:26:16.506Z,100988.27
2018-12-23T06:28:46.717Z,100994.35
2018-12-23T06:31:16.846Z,100997.86
2018-12-23T06:33:47.570Z,101001.80
2018-12-23T06:36:17.774Z,100998.31
2018-12-23T06:38:48.260Z,100992.67
2018-12-23T06:41:19.448Z,100996.98
2018-12-23T06:43:49.951Z,100990.05
2018-12-23T06:46:20.383Z,100994.41
2018-12-23T06:48:50.575Z,100980.91
2018-12-23T06:51:20.721Z,100989.58
2018-12-23T06:53:51.489Z,100993.45
2018-12-23T06:56:22.145Z,100988.27
2018-12-23T06:58:52.898Z,100990.86
2018-12-23T07:01:23.202Z,100999.09
2018-12-23T07:03:53.718Z,100989.55
2018-12-23T07:06:24.451Z,100987.77
2018-12-23T07:08:54.909Z,100990.43
2018-12-23T07:11:25.262Z,100986.49
2018-12-23T07:13:55.538Z,100987.80
2018-12-23T07:16:25.973Z,100988.23
2018-12-23T07:18:56.141Z,100990.80
2018-12-23T07:21:26.574Z,100996.52
2018-12-23T07:23:57.410Z,100996.49
2018-12-23T07:26:27.769Z,100997.36
2018-12-23T07:28:58.351Z,100999.52
2018-12-23T07:31:28.895Z,101000.42
2018-12-23T07:33:59.061Z,100995.64
2018-12-23T07:36:29.359Z,100997.81
2018-12-23T07:38:59.839Z,100999.16
2018-12-23T07:41:30.385Z,100984.42
2018-12-23T07:44:01.117Z,100989.63
2018-12-23T07:46:31.360Z,100989.57
2018-12-23T07:49:02.417Z,100993.08
2018-12-23T07:51:33.338Z,100997.43
2018-12-23T07:54:04.730Z,100993.98
2018-12-23T07:56:36.102Z,100987.47
2018-12-23T07:59:09.502Z,100987.47
2018-12-23T08:01:39.709Z,100996.61
2018-12-23T08:04:10.350Z,100997.45
2018-12-23T08:06:40.493Z,100994.88
2018-12-23T08:09:10.785Z,101003.11
2018-12-23T08:11:41.415Z,101007.47
2018-12-23T08:14:12.220Z,101011.83
2018-12-23T08:16:42.584Z,101015.70
2018-12-23T08:19:13.086Z,101016.55
2018-12-23T08:21:44.184Z,101015.31
2018-12-23T08:26:50.645Z,101013.13
2018-12-23T08:29:40.322Z,101006.19
2018-12-23T08:32:10.815Z,101010.09
2018-12-23T08:35:20.828Z,101013.57
2018-12-23T08:37:51.322Z,101003.61
2018-12-23T08:40:42.631Z,101002.33
2018-12-23T08:43:18.126Z,100998.42
2018-12-23T08:45:48.965Z,100997.14
2018-12-23T08:48:19.875Z,100998.89
2018-12-23T08:50:50.406Z,100996.73
2018-12-23T08:53:20.890Z,101001.94
2018-12-23T08:55:51.171Z,101008.47
2018-12-23T08:58:40.277Z,101005.87
2018-12-23T09:01:29.540Z,101005.02
2018-12-23T09:04:00.109Z,101011.55
2018-12-23T09:06:49.395Z,101004.61
2018-12-23T09:09:38.981Z,100998.98
2018-12-23T09:12:28.560Z,100992.00
2018-12-23T09:14:59.879Z,100995.06
2018-12-23T09:17:31.167Z,100995.94
2018-12-23T09:20:01.702Z,100992.03
2018-12-23T09:22:32.975Z,101000.30
2018-12-23T09:25:03.896Z,100992.90
2018-12-23T09:27:34.696Z,100987.30
2018-12-23T09:30:05.845Z,100981.64
2018-12-23T09:32:36.891Z,100989.01
2018-12-23T09:35:08.198Z,100979.05
2018-12-23T09:37:38.492Z,100975.59
2018-12-23T09:40:09.671Z,100976.00
2018-12-23T09:42:40.327Z,100975.15
2018-12-23T09:45:11.005Z,100980.80
2018-12-23T09:47:42.253Z,100979.54
2018-12-23T09:50:12.869Z,100974.77
2018-12-23T09:52:43.454Z,100972.59
2018-12-23T09:55:13.692Z,100966.51
2018-12-23T09:57:44.138Z,100965.67
2018-12-23T10:00:14.655Z,100980.86
2018-12-23T10:02:44.811Z,100963.49
2018-12-23T10:05:15.265Z,100963.94
2018-12-23T10:07:46.157Z,100965.27
2018-12-23T10:10:16.624Z,100964.39
2018-12-23T10:12:47.369Z,100963.96
2018-12-23T10:15:17.585Z,100954.86
2018-12-23T10:17:49.027Z,100958.36
2018-12-23T10:20:19.286Z,100958.36
2018-12-23T10:22:49.957Z,100950.98
2018-12-23T10:25:20.264Z,100948.36
2018-12-23T10:27:50.386Z,100942.31
2018-12-23T10:30:39.721Z,100935.78
2018-12-23T10:33:10.268Z,100930.58
2018-12-23T10:35:40.496Z,100925.82
2018-12-23T10:38:30.049Z,100924.50
2018-12-23T10:41:00.517Z,100920.16
2018-12-23T10:43:30.683Z,100920.61
2018-12-23T10:46:01.249Z,100922.38
2018-12-23T10:48:31.464Z,100914.55
2018-12-23T10:51:01.743Z,100911.06
2018-12-23T10:53:32.276Z,100909.34
2018-12-23T10:56:02.847Z,100909.35
2018-12-23T10:58:33.971Z,100907.60
2018-12-23T11:01:07.598Z,100905.43
2018-12-23T11:03:38.063Z,100898.48
2018-12-23T11:06:08.598Z,100905.01
2018-12-23T11:08:38.954Z,100908.51
2018-12-23T11:11:09.529Z,100898.08
2018-12-23T11:13:41.739Z,100897.19
2018-12-23T11:16:12.898Z,100880.69
2018-12-23T11:18:43.237Z,100874.14
2018-12-23T11:21:13.750Z,100878.94
2018-12-23T11:23:44.294Z,100870.23
2018-12-23T11:26:14.544Z,100866.34
2018-12-23T11:28:45.492Z,100865.48
2018-12-23T11:31:16.074Z,100856.36
2018-12-23T11:33:47.053Z,100860.70
2018-12-23T11:36:17.374Z,100855.05
2018-12-23T11:38:48.276Z,100860.68
2018-12-23T11:41:18.777Z,100857.66
2018-12-23T11:43:49.072Z,100859.38
2018-12-23T11:46:19.783Z,100854.61
2018-12-23T11:48:51.157Z,100852.45
2018-12-23T11:51:22.043Z,100853.75
2018-12-23T11:53:52.693Z,100856.34
2018-12-23T11:56:23.288Z,100850.25
2018-12-23T11:58:53.548Z,100840.27
2018-12-23T12:01:24.362Z,100846.33
2018-12-23T12:03:55.986Z,100841.55
2018-12-23T12:06:27.620Z,100839.81
2018-12-23T12:09:06.885Z,100833.72
2018-12-23T12:11:32.571Z,100834.59
2018-12-23T12:14:05.011Z,100831.13
2018-12-23T12:16:36.116Z,100836.34
2018-12-23T12:19:06.779Z,100825.91
2018-12-23T12:21:37.863Z,100828.09
2018-12-23T12:24:08.580Z,100822.43
2018-12-23T12:26:38.852Z,100822.43
2018-12-23T12:32:07.163Z,100823.71
2018-12-23T12:34:37.477Z,100823.71
2018-12-23T12:37:08.206Z,100817.20
2018-12-23T12:39:38.580Z,100824.59
2018-12-23T12:42:08.996Z,100819.80
2018-12-23T12:47:36.518Z,100820.70
2018-12-23T12:50:07.116Z,100812.42
2018-12-23T12:52:37.305Z,100811.12
2018-12-23T12:55:07.733Z,100804.13
2018-12-23T12:57:38.091Z,100806.73
2018-12-23T13:00:08.601Z,100797.61
2018-12-23T13:02:39.909Z,100797.59
2018-12-23T13:05:10.483Z,100797.19
2018-12-23T13:08:20.007Z,100800.66
2018-12-23T13:10:50.925Z,100802.39
2018-12-23T13:13:21.365Z,100811.11
2018-12-23T13:15:51.880Z,100810.21
2018-12-23T13:18:22.551Z,100803.27
2018-12-23T13:20:53.337Z,100808.91
2018-12-23T13:23:42.800Z,100803.29
2018-12-23T13:26:31.967Z,100808.06
2018-12-23T13:29:02.847Z,100801.09
2018-12-23T13:31:52.719Z,100795.88
2018-12-23T13:34:23.667Z,100791.55
2018-12-23T13:36:54.144Z,100789.80
2018-12-23T13:39:24.991Z,100790.22
2018-12-23T13:42:41.316Z,100794.98
2018-12-23T13:45:53.617Z,100798.50
2018-12-23T13:49:21.618Z,100791.09
2018-12-23T13:53:07.837Z,100788.52
2018-12-23T13:56:47.321Z,100786.33
2018-12-23T14:00:21.303Z,100786.75
2018-12-23T14:03:57.154Z,100782.42
2018-12-23T14:07:33.124Z,100778.52
2018-12-23T14:11:04.160Z,100778.09
2018-12-23T14:13:36.687Z,100784.60
2018-12-23T14:16:07.584Z,100777.20
2018-12-23T14:18:37.899Z,100779.37
2018-12-23T14:21:08.745Z,100780.23
2018-12-23T14:23:38.973Z,100773.73
2018-12-23T14:26:09.515Z,100765.91
2018-12-23T14:28:58.753Z,100768.92
2018-12-23T14:31:29.742Z,100758.52
2018-12-23T14:34:00.996Z,100767.62
2018-12-23T14:36:31.527Z,100758.52
2018-12-23T14:39:02.313Z,100754.60
2018-12-23T14:41:32.752Z,100752.44
2018-12-23T14:44:03.223Z,100764.13
2018-12-23T14:46:33.396Z,100764.58
2018-12-23T14:49:09.706Z,100758.06
2018-12-23T14:51:40.397Z,100765.02
2018-12-23T14:54:11.045Z,100764.58
2018-12-23T14:56:41.466Z,100757.20
2018-12-23T14:59:11.935Z,100754.59
2018-12-23T15:01:42.771Z,100748.48
2018-12-23T15:04:12.945Z,100741.55
2018-12-23T15:06:43.719Z,100747.20
2018-12-23T15:09:13.964Z,100741.96
2018-12-23T15:11:44.496Z,100728.52
2018-12-23T15:14:14.727Z,100723.30
2018-12-23T15:16:45.997Z,100727.20
2018-12-23T15:19:16.629Z,100722.87
2018-12-23T15:21:47.265Z,100721.98
2018-12-23T15:24:17.515Z,100713.29
2018-12-23T15:26:48.514Z,100698.95
2018-12-23T15:29:18.659Z,100700.23
2018-12-23T15:31:48.945Z,100701.13
2018-12-23T15:34:19.392Z,100701.98
2018-12-23T15:36:50.304Z,100687.63
2018-12-23T15:39:20.924Z,100685.88
2018-12-23T15:41:51.052Z,100685.44
2018-12-23T15:44:21.185Z,100684.14
2018-12-23T15:46:51.698Z,100687.61
2018-12-23T15:49:21.878Z,100690.22
2018-12-23T15:51:52.117Z,100692.84
2018-12-23T15:54:22.286Z,100688.92
2018-12-23T15:56:53.315Z,100681.98
2018-12-23T15:59:23.787Z,100681.09
2018-12-23T16:01:54.267Z,100679.38
2018-12-23T16:04:24.438Z,100681.13
2018-12-23T16:06:54.868Z,100677.68
2018-12-23T16:09:25.500Z,100666.81
2018-12-23T16:14:45.518Z,100661.19
2018-12-23T16:17:16.281Z,100658.13
2018-12-23T16:19:46.455Z,100656.41
2018-12-23T16:22:16.915Z,100658.56
2018-12-23T16:25:06.133Z,100652.92
2018-12-23T16:27:36.279Z,100653.81
2018-12-23T16:30:08.981Z,100644.25
2018-12-23T16:32:45.397Z,100644.25
2018-12-23T16:35:16.076Z,100641.64
2018-12-23T16:37:46.460Z,100639.03
2018-12-23T16:40:16.520Z,100630.36
2018-12-23T16:42:47.554Z,100628.17
2018-12-23T16:47:51.136Z,100623.39
2018-12-23T16:50:21.336Z,100612.98
2018-12-23T16:52:51.780Z,100611.67
2018-12-23T16:55:22.339Z,100612.11
2018-12-23T16:57:53.292Z,100609.51
2018-12-23T17:00:23.444Z,100613.86
2018-12-23T17:02:53.629Z,100605.17
2018-12-23T17:05:24.128Z,100604.71
2018-12-23T17:07:54.340Z,100607.76
2018-12-23T17:10:24.770Z,100609.08
2018-12-23T17:12:54.998Z,100611.68
2018-12-23T17:15:25.219Z,100608.62
2018-12-23T17:17:55.460Z,100604.28
2018-12-23T17:20:25.654Z,100601.24
2018-12-23T17:22:56.108Z,100598.66
2018-12-23T17:25:26.246Z,100597.31
2018-12-23T17:27:56.500Z,100599.52
2018-12-23T17:30:26.655Z,100595.12
2018-12-23T17:32:57.479Z,100587.77
2018-12-23T17:35:28.226Z,100592.09
2018-12-23T17:37:58.954Z,100591.22
2018-12-23T17:40:29.394Z,100591.69
2018-12-23T17:42:59.561Z,100592.09
2018-12-23T17:45:29.708Z,100588.19
2018-12-23T17:48:00.687Z,100582.53
2018-12-23T17:50:30.875Z,100590.77
2018-12-23T17:53:01.041Z,100598.57
2018-12-23T17:55:31.508Z,100576.91
2018-12-23T17:58:01.665Z,100579.05
2018-12-23T18:00:32.069Z,100582.52
2018-12-23T18:03:02.207Z,100580.77
2018-12-23T18:05:32.454Z,100579.91
2018-12-23T18:08:02.963Z,100563.84
2018-12-23T18:10:33.388Z,100563.84
2018-12-23T18:13:03.556Z,100557.33
2018-12-23T18:15:34.029Z,100564.70
2018-12-23T18:18:04.396Z,100559.92
2018-12-23T18:20:34.885Z,100565.11
2018-12-23T18:23:05.057Z,100560.80
2018-12-23T18:25:35.232Z,100561.22
2018-12-23T18:28:05.862Z,100554.24
2018-12-23T18:30:37.689Z,100561.21
2018-12-23T18:33:08.494Z,100555.53
2018-12-23T18:35:38.954Z,100550.38
2018-12-23T18:38:09.407Z,100549.03
2018-12-23T18:40:40.711Z,100541.23
2018-12-23T18:43:11.231Z,100551.22
2018-12-23T18:45:41.811Z,100549.92
2018-12-23T18:48:11.995Z,100556.82
2018-12-23T18:50:42.537Z,100552.00
2018-12-23T18:53:13.318Z,100546.80
2018-12-23T18:55:43.485Z,100536.38
2018-12-23T18:58:13.674Z,100536.38
2018-12-23T19:00:48.167Z,100534.19
2018-12-23T19:03:18.733Z,100545.87
2018-12-23T19:05:49.346Z,100539.83
2018-12-23T19:08:28.840Z,100542.45
2018-12-23T19:12:13.808Z,100541.20
2018-12-23T19:15:29.251Z,100541.20
2018-12-23T19:22:21.725Z,100542.53
2018-12-23T19:25:45.191Z,100537.73
2018-12-23T19:29:24.280Z,100537.31
2018-12-23T19:32:51.881Z,100538.18
2018-12-23T19:36:23.416Z,100537.73
2018-12-23T19:40:06.511Z,100529.48
2018-12-23T19:43:35.684Z,100536.36
2018-12-23T19:47:14.382Z,100523.00
2018-12-23T19:50:55.238Z,100516.89
2018-12-23T19:54:11.559Z,100497.38
2018-12-23T19:57:56.778Z,100513.04
2018-12-23T20:00:55.070Z,100518.23
2018-12-23T20:04:08.559Z,100522.10
2018-12-23T20:07:26.874Z,100519.53
2018-12-23T20:10:50.040Z,100524.27
2018-12-23T20:14:23.634Z,100521.70
2018-12-23T20:17:55.441Z,100521.67
2018-12-23T20:21:11.875Z,100525.52
2018-12-23T20:24:24.107Z,100530.82
2018-12-23T20:27:51.614Z,100526.52
2018-12-23T20:31:04.783Z,100522.16
2018-12-23T20:34:41.223Z,100526.00
2018-12-23T20:37:54.040Z,100524.75
2018-12-23T20:41:38.107Z,100515.22
2018-12-23T20:45:11.820Z,100514.77
2018-12-23T20:48:32.580Z,100518.70
2018-12-23T20:52:15.717Z,100520.00
2018-12-23T20:55:40.366Z,100520.41
2018-12-23T20:59:01.436Z,100514.36
2018-12-23T21:02:25.253Z,100519.13
2018-12-23T21:05:41.452Z,100526.52
2018-12-23T21:09:18.079Z,100525.61
2018-12-23T21:13:09.148Z,100521.23
2018-12-23T21:16:42.503Z,100522.14
2018-12-23T21:20:23.228Z,100505.23
2018-12-23T21:24:09.834Z,100505.18
2018-12-23T21:27:50.363Z,100509.14
2018-12-23T21:31:21.914Z,100521.30
2018-12-23T21:34:43.771Z,100513.05
2018-12-23T21:37:50.706Z,100526.93
2018-12-23T21:41:10.275Z,100533.02
2018-12-23T21:44:53.252Z,100536.48
2018-12-23T21:48:16.613Z,100526.94
2018-12-23T21:51:49.873Z,100530.84
2018-12-23T21:55:30.481Z,100514.81
2018-12-23T21:58:46.308Z,100513.07
2018-12-23T22:02:28.370Z,100520.02
2018-12-23T22:06:04.596Z,100527.83
2018-12-23T22:09:42.787Z,100527.83
2018-12-23T22:13:23.239Z,100539.09
2018-12-23T22:15:54.485Z,100538.23
2018-12-23T22:18:25.924Z,100536.48
2018-12-23T22:20:56.954Z,100544.28
2018-12-23T22:23:28.758Z,100539.09
2018-12-23T22:26:02.389Z,100534.77
2018-12-23T22:28:33.506Z,100543.00
2018-12-23T22:31:04.131Z,100538.22
2018-12-23T22:33:34.391Z,100539.08
2018-12-23T22:36:04.622Z,100528.23
2018-12-23T22:38:35.249Z,100532.13
2018-12-23T22:41:12.756Z,100528.69
2018-12-23T22:43:43.236Z,100526.06
2018-12-23T22:46:13.727Z,100534.73
2018-12-23T22:48:44.448Z,100534.73
2018-12-23T22:51:14.973Z,100538.23
2018-12-23T22:53:47.175Z,100544.28
2018-12-23T22:56:17.665Z,100546.03
2018-12-23T22:58:48.350Z,100548.63
2018-12-23T23:01:19.430Z,100551.64
2018-12-23T23:03:49.610Z,100550.76
2018-12-23T23:06:20.081Z,100550.77
2018-12-23T23:08:50.764Z,100549.50
2018-12-23T23:11:20.924Z,100554.24
2018-12-23T23:13:51.640Z,100560.34
2018-12-23T23:16:23.080Z,100554.70
2018-12-23T23:18:53.643Z,100556.89
2018-12-23T23:21:24.094Z,100562.94
2018-12-23T23:23:54.910Z,100567.72
2018-12-23T23:26:25.666Z,100566.83
2018-12-23T23:28:56.168Z,100569.41
2018-12-23T23:31:27.293Z,100566.83
2018-12-23T23:33:57.734Z,100571.58
2018-12-23T23:36:28.195Z,100564.63
2018-12-23T23:38:58.407Z,100569.80
2018-12-23T23:41:28.547Z,100567.17
2018-12-23T23:43:59.007Z,100570.71
2018-12-23T23:46:29.528Z,100578.93
2018-12-23T23:48:59.974Z,100573.75
2018-12-23T23:51:30.433Z,100571.56
2018-12-23T23:54:01.009Z,100578.05
2018-12-23T23:56:31.438Z,100578.94
2018-12-23T23:59:02.151Z,100581.44
